Forest Hill, United Kingdom
Current Conditions -  °F | °C
As of 4:20 AM on Sunday 21 Dec 2014 (Local Time) from EGLC Reporting Station
Moderate Rain Moderate Rain  
Wind Chill: 43°   Ceiling: 2800
Heat Index: 46°   Visibility: 6mi
Dew Point: 41°   Wind: 7mph
Humidity: 81%   Direction: 240°WSW
Pressure: 30.42"   Gusts: NA
Location:  51.44°N, 0.05°W
Report Text: EGLC 210420Z AUTO 24006KT 9999 RA SCT022/// BKN028/// 08/05 Q1030
Loading
Personal Weather Stations






























Interactive Weather Map New forecast layout! Learn more

10-Day Weather Forecast

Advertisements
Track Severe Weather on mobile